sensor_id;sensor_type;location;lat;lon;timestamp;P1;durP1;ratioP1;P2;durP2;ratioP2
61505;SDS011;47366;51.916;4.574;2022-12-07T00:01:04;0.30;;;0.30;;
61505;SDS011;47366;51.916;4.574;2022-12-07T00:03:38;0.38;;;0.32;;
61505;SDS011;47366;51.916;4.574;2022-12-07T00:06:05;0.30;;;0.30;;
61505;SDS011;47366;51.916;4.574;2022-12-07T00:08:32;0.03;;;0.03;;
61505;SDS011;47366;51.916;4.574;2022-12-07T00:11:05;0.47;;;0.38;;
61505;SDS011;47366;51.916;4.574;2022-12-07T00:13:42;0.25;;;0.25;;
61505;SDS011;47366;51.916;4.574;2022-12-07T00:16:09;0.00;;;0.00;;
61505;SDS011;47366;51.916;4.574;2022-12-07T00:18:36;0.20;;;0.20;;
61505;SDS011;47366;51.916;4.574;2022-12-07T00:21:03;0.10;;;0.10;;
61505;SDS011;47366;51.916;4.574;2022-12-07T00:23:30;0.10;;;0.10;;
61505;SDS011;47366;51.916;4.574;2022-12-07T00:26:02;0.25;;;0.25;;
61505;SDS011;47366;51.916;4.574;2022-12-07T00:28:48;1.60;;;0.20;;
61505;SDS011;47366;51.916;4.574;2022-12-07T00:31:16;0.47;;;0.30;;
61505;SDS011;47366;51.916;4.574;2022-12-07T00:33:42;0.20;;;0.20;;
61505;SDS011;47366;51.916;4.574;2022-12-07T00:36:09;0.25;;;0.17;;
61505;SDS011;47366;51.916;4.574;2022-12-07T00:38:37;0.60;;;0.52;;
61505;SDS011;47366;51.916;4.574;2022-12-07T00:41:10;0.55;;;0.40;;
61505;SDS011;47366;51.916;4.574;2022-12-07T00:43:41;0.28;;;0.20;;
61505;SDS011;47366;51.916;4.574;2022-12-07T00:46:08;0.38;;;0.25;;
61505;SDS011;47366;51.916;4.574;2022-12-07T00:48:33;2.35;;;0.57;;
61505;SDS011;47366;51.916;4.574;2022-12-07T00:50:59;0.00;;;0.00;;
61505;SDS011;47366;51.916;4.574;2022-12-07T00:53:25;0.65;;;0.35;;
61505;SDS011;47366;51.916;4.574;2022-12-07T00:55:51;0.40;;;0.20;;
61505;SDS011;47366;51.916;4.574;2022-12-07T00:58:17;0.50;;;0.30;;
61505;SDS011;47366;51.916;4.574;2022-12-07T01:00:43;4.63;;;0.25;;
61505;SDS011;47366;51.916;4.574;2022-12-07T01:03:09;0.52;;;0.40;;
61505;SDS011;47366;51.916;4.574;2022-12-07T01:05:36;0.65;;;0.35;;
61505;SDS011;47366;51.916;4.574;2022-12-07T01:08:02;0.38;;;0.30;;
61505;SDS011;47366;51.916;4.574;2022-12-07T01:10:28;0.70;;;0.45;;
61505;SDS011;47366;51.916;4.574;2022-12-07T01:12:55;0.30;;;0.25;;
61505;SDS011;47366;51.916;4.574;2022-12-07T01:15:21;0.32;;;0.30;;
61505;SDS011;47366;51.916;4.574;2022-12-07T01:17:47;0.55;;;0.30;;
61505;SDS011;47366;51.916;4.574;2022-12-07T01:20:13;0.35;;;0.30;;
61505;SDS011;47366;51.916;4.574;2022-12-07T01:22:39;0.10;;;0.10;;
61505;SDS011;47366;51.916;4.574;2022-12-07T01:25:06;0.20;;;0.10;;
61505;SDS011;47366;51.916;4.574;2022-12-07T01:27:33;0.00;;;0.00;;
61505;SDS011;47366;51.916;4.574;2022-12-07T01:29:59;0.32;;;0.05;;
61505;SDS011;47366;51.916;4.574;2022-12-07T01:32:24;0.17;;;0.13;;
61505;SDS011;47366;51.916;4.574;2022-12-07T01:34:50;0.45;;;0.20;;
61505;SDS011;47366;51.916;4.574;2022-12-07T01:37:15;0.08;;;0.08;;
61505;SDS011;47366;51.916;4.574;2022-12-07T01:39:40;0.50;;;0.30;;
61505;SDS011;47366;51.916;4.574;2022-12-07T01:42:09;0.28;;;0.08;;
61505;SDS011;47366;51.916;4.574;2022-12-07T01:45:31;0.10;;;0.10;;
61505;SDS011;47366;51.916;4.574;2022-12-07T01:47:39;0.00;;;0.00;;
61505;SDS011;47366;51.916;4.574;2022-12-07T01:50:06;4.78;;;0.30;;
61505;SDS011;47366;51.916;4.574;2022-12-07T01:52:32;0.68;;;0.15;;
61505;SDS011;47366;51.916;4.574;2022-12-07T01:55:02;0.30;;;0.10;;
61505;SDS011;47366;51.916;4.574;2022-12-07T01:57:31;0.30;;;0.17;;
61505;SDS011;47366;51.916;4.574;2022-12-07T01:59:59;0.55;;;0.28;;
61505;SDS011;47366;51.916;4.574;2022-12-07T02:02:33;0.00;;;0.00;;
61505;SDS011;47366;51.916;4.574;2022-12-07T02:05:02;0.52;;;0.22;;
61505;SDS011;47366;51.916;4.574;2022-12-07T02:07:29;0.43;;;0.20;;
61505;SDS011;47366;51.916;4.574;2022-12-07T02:09:57;0.00;;;0.00;;
61505;SDS011;47366;51.916;4.574;2022-12-07T02:12:36;0.10;;;0.10;;
61505;SDS011;47366;51.916;4.574;2022-12-07T02:15:01;0.10;;;0.00;;
61505;SDS011;47366;51.916;4.574;2022-12-07T02:17:39;0.00;;;0.00;;
61505;SDS011;47366;51.916;4.574;2022-12-07T02:28:36;0.25;;;0.08;;
61505;SDS011;47366;51.916;4.574;2022-12-07T02:31:15;0.00;;;0.00;;
61505;SDS011;47366;51.916;4.574;2022-12-07T02:34:08;0.10;;;0.10;;
61505;SDS011;47366;51.916;4.574;2022-12-07T02:36:38;0.50;;;0.22;;
61505;SDS011;47366;51.916;4.574;2022-12-07T02:39:11;0.00;;;0.00;;
61505;SDS011;47366;51.916;4.574;2022-12-07T02:41:46;0.10;;;0.05;;
61505;SDS011;47366;51.916;4.574;2022-12-07T02:44:14;0.10;;;0.05;;
61505;SDS011;47366;51.916;4.574;2022-12-07T02:46:44;0.10;;;0.10;;
61505;SDS011;47366;51.916;4.574;2022-12-07T02:49:15;0.25;;;0.05;;
61505;SDS011;47366;51.916;4.574;2022-12-07T02:51:42;0.13;;;0.00;;
61505;SDS011;47366;51.916;4.574;2022-12-07T02:54:13;0.00;;;0.00;;
61505;SDS011;47366;51.916;4.574;2022-12-07T02:56:44;0.10;;;0.10;;
61505;SDS011;47366;51.916;4.574;2022-12-07T03:10:46;0.08;;;0.05;;
61505;SDS011;47366;51.916;4.574;2022-12-07T03:16:02;0.13;;;0.10;;
61505;SDS011;47366;51.916;4.574;2022-12-07T03:18:49;0.20;;;0.20;;
61505;SDS011;47366;51.916;4.574;2022-12-07T03:21:22;0.10;;;0.10;;
61505;SDS011;47366;51.916;4.574;2022-12-07T03:23:53;0.20;;;0.10;;
61505;SDS011;47366;51.916;4.574;2022-12-07T03:26:22;0.00;;;0.00;;
61505;SDS011;47366;51.916;4.574;2022-12-07T03:28:52;0.00;;;0.00;;
61505;SDS011;47366;51.916;4.574;2022-12-07T03:31:30;1.20;;;0.27;;
61505;SDS011;47366;51.916;4.574;2022-12-07T03:34:02;0.22;;;0.10;;
61505;SDS011;47366;51.916;4.574;2022-12-07T03:39:17;0.00;;;0.00;;
61505;SDS011;47366;51.916;4.574;2022-12-07T03:41:46;0.10;;;0.10;;
61505;SDS011;47366;51.916;4.574;2022-12-07T03:44:11;0.35;;;0.35;;
61505;SDS011;47366;51.916;4.574;2022-12-07T03:52:23;0.13;;;0.13;;
61505;SDS011;47366;51.916;4.574;2022-12-07T03:57:41;0.05;;;0.03;;
61505;SDS011;47366;51.916;4.574;2022-12-07T04:00:09;0.00;;;0.00;;
61505;SDS011;47366;51.916;4.574;2022-12-07T04:02:36;2.92;;;0.30;;
61505;SDS011;47366;51.916;4.574;2022-12-07T04:05:02;0.13;;;0.10;;
61505;SDS011;47366;51.916;4.574;2022-12-07T04:07:28;1.00;;;0.30;;
61505;SDS011;47366;51.916;4.574;2022-12-07T04:09:53;0.75;;;0.30;;
61505;SDS011;47366;51.916;4.574;2022-12-07T04:12:20;0.10;;;0.05;;
61505;SDS011;47366;51.916;4.574;2022-12-07T04:14:46;0.00;;;0.00;;
61505;SDS011;47366;51.916;4.574;2022-12-07T04:17:11;0.00;;;0.00;;
61505;SDS011;47366;51.916;4.574;2022-12-07T04:19:37;0.00;;;0.00;;
61505;SDS011;47366;51.916;4.574;2022-12-07T04:22:03;0.05;;;0.00;;
61505;SDS011;47366;51.916;4.574;2022-12-07T04:24:29;5.47;;;0.22;;
61505;SDS011;47366;51.916;4.574;2022-12-07T04:26:55;0.00;;;0.00;;
61505;SDS011;47366;51.916;4.574;2022-12-07T04:29:20;0.30;;;0.17;;
61505;SDS011;47366;51.916;4.574;2022-12-07T04:31:46;0.00;;;0.00;;
61505;SDS011;47366;51.916;4.574;2022-12-07T04:34:12;0.05;;;0.05;;
61505;SDS011;47366;51.916;4.574;2022-12-07T04:36:39;0.00;;;0.00;;
61505;SDS011;47366;51.916;4.574;2022-12-07T04:39:05;1.10;;;0.30;;
61505;SDS011;47366;51.916;4.574;2022-12-07T04:41:38;0.00;;;0.00;;
61505;SDS011;47366;51.916;4.574;2022-12-07T04:44:03;0.00;;;0.00;;
61505;SDS011;47366;51.916;4.574;2022-12-07T04:46:32;0.20;;;0.05;;
61505;SDS011;47366;51.916;4.574;2022-12-07T04:48:57;0.10;;;0.05;;
61505;SDS011;47366;51.916;4.574;2022-12-07T04:51:24;0.22;;;0.15;;
61505;SDS011;47366;51.916;4.574;2022-12-07T04:53:51;1.20;;;0.32;;
61505;SDS011;47366;51.916;4.574;2022-12-07T04:56:17;0.00;;;0.00;;
61505;SDS011;47366;51.916;4.574;2022-12-07T04:58:44;0.10;;;0.10;;
61505;SDS011;47366;51.916;4.574;2022-12-07T05:01:11;0.25;;;0.17;;
61505;SDS011;47366;51.916;4.574;2022-12-07T05:03:37;0.00;;;0.00;;
61505;SDS011;47366;51.916;4.574;2022-12-07T05:06:03;0.28;;;0.15;;
61505;SDS011;47366;51.916;4.574;2022-12-07T05:08:29;0.20;;;0.10;;
61505;SDS011;47366;51.916;4.574;2022-12-07T05:10:54;0.45;;;0.32;;
61505;SDS011;47366;51.916;4.574;2022-12-07T05:13:19;0.00;;;0.00;;
61505;SDS011;47366;51.916;4.574;2022-12-07T05:15:46;0.00;;;0.00;;
61505;SDS011;47366;51.916;4.574;2022-12-07T05:18:12;0.00;;;0.00;;
61505;SDS011;47366;51.916;4.574;2022-12-07T05:20:38;0.43;;;0.20;;
61505;SDS011;47366;51.916;4.574;2022-12-07T05:23:03;0.00;;;0.00;;
61505;SDS011;47366;51.916;4.574;2022-12-07T05:25:29;0.57;;;0.25;;
61505;SDS011;47366;51.916;4.574;2022-12-07T05:27:54;0.00;;;0.00;;
61505;SDS011;47366;51.916;4.574;2022-12-07T05:30:21;0.00;;;0.00;;
61505;SDS011;47366;51.916;4.574;2022-12-07T05:32:47;0.00;;;0.00;;
61505;SDS011;47366;51.916;4.574;2022-12-07T05:35:12;0.15;;;0.08;;
61505;SDS011;47366;51.916;4.574;2022-12-07T05:37:38;0.00;;;0.00;;
61505;SDS011;47366;51.916;4.574;2022-12-07T05:40:04;0.10;;;0.10;;
61505;SDS011;47366;51.916;4.574;2022-12-07T05:42:30;0.00;;;0.00;;
61505;SDS011;47366;51.916;4.574;2022-12-07T05:44:55;0.00;;;0.00;;
61505;SDS011;47366;51.916;4.574;2022-12-07T05:47:20;0.32;;;0.20;;
61505;SDS011;47366;51.916;4.574;2022-12-07T05:49:46;0.00;;;0.00;;
61505;SDS011;47366;51.916;4.574;2022-12-07T05:52:11;0.00;;;0.00;;
61505;SDS011;47366;51.916;4.574;2022-12-07T05:54:37;0.00;;;0.00;;
61505;SDS011;47366;51.916;4.574;2022-12-07T05:57:02;0.00;;;0.00;;
61505;SDS011;47366;51.916;4.574;2022-12-07T05:59:28;2.92;;;0.32;;
61505;SDS011;47366;51.916;4.574;2022-12-07T06:04:31;0.43;;;0.40;;
61505;SDS011;47366;51.916;4.574;2022-12-07T06:06:59;0.00;;;0.00;;
61505;SDS011;47366;51.916;4.574;2022-12-07T06:09:25;0.05;;;0.00;;
61505;SDS011;47366;51.916;4.574;2022-12-07T06:11:52;0.00;;;0.00;;
61505;SDS011;47366;51.916;4.574;2022-12-07T06:14:37;0.00;;;0.00;;
61505;SDS011;47366;51.916;4.574;2022-12-07T06:17:02;0.00;;;0.00;;
61505;SDS011;47366;51.916;4.574;2022-12-07T06:19:28;0.25;;;0.17;;
61505;SDS011;47366;51.916;4.574;2022-12-07T06:21:53;0.00;;;0.00;;
61505;SDS011;47366;51.916;4.574;2022-12-07T06:24:19;0.00;;;0.00;;
61505;SDS011;47366;51.916;4.574;2022-12-07T06:26:44;2.20;;;0.22;;
61505;SDS011;47366;51.916;4.574;2022-12-07T06:29:10;0.05;;;0.05;;
61505;SDS011;47366;51.916;4.574;2022-12-07T06:31:37;3.17;;;0.57;;
61505;SDS011;47366;51.916;4.574;2022-12-07T06:34:03;0.17;;;0.17;;
61505;SDS011;47366;51.916;4.574;2022-12-07T06:36:31;0.08;;;0.08;;
61505;SDS011;47366;51.916;4.574;2022-12-07T06:38:56;0.20;;;0.10;;
61505;SDS011;47366;51.916;4.574;2022-12-07T06:41:22;0.10;;;0.03;;
61505;SDS011;47366;51.916;4.574;2022-12-07T06:43:47;0.35;;;0.10;;
61505;SDS011;47366;51.916;4.574;2022-12-07T06:46:13;0.22;;;0.20;;
61505;SDS011;47366;51.916;4.574;2022-12-07T06:48:39;0.13;;;0.13;;
61505;SDS011;47366;51.916;4.574;2022-12-07T06:51:05;0.77;;;0.20;;
61505;SDS011;47366;51.916;4.574;2022-12-07T06:53:30;1.15;;;0.25;;
61505;SDS011;47366;51.916;4.574;2022-12-07T06:55:56;0.00;;;0.00;;
61505;SDS011;47366;51.916;4.574;2022-12-07T06:58:21;2.17;;;0.28;;
61505;SDS011;47366;51.916;4.574;2022-12-07T07:00:47;0.47;;;0.20;;
61505;SDS011;47366;51.916;4.574;2022-12-07T07:03:14;1.17;;;0.43;;
61505;SDS011;47366;51.916;4.574;2022-12-07T07:05:39;0.50;;;0.47;;
61505;SDS011;47366;51.916;4.574;2022-12-07T07:08:05;0.03;;;0.03;;
61505;SDS011;47366;51.916;4.574;2022-12-07T07:10:30;0.05;;;0.05;;
61505;SDS011;47366;51.916;4.574;2022-12-07T07:12:56;0.52;;;0.43;;
61505;SDS011;47366;51.916;4.574;2022-12-07T07:15:21;0.15;;;0.13;;
61505;SDS011;47366;51.916;4.574;2022-12-07T07:17:47;0.32;;;0.32;;
61505;SDS011;47366;51.916;4.574;2022-12-07T07:20:12;2.72;;;1.67;;
61505;SDS011;47366;51.916;4.574;2022-12-07T07:22:38;11.13;;;3.95;;
61505;SDS011;47366;51.916;4.574;2022-12-07T07:25:04;21.20;;;7.50;;
61505;SDS011;47366;51.916;4.574;2022-12-07T07:27:29;18.55;;;6.40;;
61505;SDS011;47366;51.916;4.574;2022-12-07T07:29:55;12.23;;;6.07;;
61505;SDS011;47366;51.916;4.574;2022-12-07T07:32:20;11.88;;;4.97;;
61505;SDS011;47366;51.916;4.574;2022-12-07T07:34:47;7.45;;;2.17;;
61505;SDS011;47366;51.916;4.574;2022-12-07T07:37:12;2.72;;;1.95;;
61505;SDS011;47366;51.916;4.574;2022-12-07T07:39:37;0.80;;;0.63;;
61505;SDS011;47366;51.916;4.574;2022-12-07T07:42:03;1.05;;;0.80;;
61505;SDS011;47366;51.916;4.574;2022-12-07T07:44:29;3.35;;;1.33;;
61505;SDS011;47366;51.916;4.574;2022-12-07T07:46:54;0.85;;;0.73;;
61505;SDS011;47366;51.916;4.574;2022-12-07T07:49:20;3.05;;;1.42;;
61505;SDS011;47366;51.916;4.574;2022-12-07T07:51:45;1.95;;;1.00;;
61505;SDS011;47366;51.916;4.574;2022-12-07T07:54:10;1.48;;;0.85;;
61505;SDS011;47366;51.916;4.574;2022-12-07T07:56:36;4.22;;;0.75;;
61505;SDS011;47366;51.916;4.574;2022-12-07T07:59:01;0.70;;;0.55;;
61505;SDS011;47366;51.916;4.574;2022-12-07T08:01:27;0.10;;;0.10;;
61505;SDS011;47366;51.916;4.574;2022-12-07T08:03:52;0.68;;;0.38;;
61505;SDS011;47366;51.916;4.574;2022-12-07T08:06:17;0.17;;;0.17;;
61505;SDS011;47366;51.916;4.574;2022-12-07T08:08:43;0.17;;;0.17;;
61505;SDS011;47366;51.916;4.574;2022-12-07T08:11:08;1.08;;;0.63;;
61505;SDS011;47366;51.916;4.574;2022-12-07T08:13:34;2.28;;;1.02;;
61505;SDS011;47366;51.916;4.574;2022-12-07T08:16:04;0.32;;;0.28;;
61505;SDS011;47366;51.916;4.574;2022-12-07T08:18:30;0.40;;;0.35;;
61505;SDS011;47366;51.916;4.574;2022-12-07T08:20:59;0.52;;;0.35;;
61505;SDS011;47366;51.916;4.574;2022-12-07T08:25:54;0.47;;;0.47;;
61505;SDS011;47366;51.916;4.574;2022-12-07T08:28:20;0.17;;;0.17;;
61505;SDS011;47366;51.916;4.574;2022-12-07T08:30:45;0.80;;;0.60;;
61505;SDS011;47366;51.916;4.574;2022-12-07T08:33:10;0.82;;;0.47;;
61505;SDS011;47366;51.916;4.574;2022-12-07T08:35:36;0.95;;;0.60;;
61505;SDS011;47366;51.916;4.574;2022-12-07T08:38:01;0.73;;;0.55;;
61505;SDS011;47366;51.916;4.574;2022-12-07T08:40:27;4.30;;;0.60;;
61505;SDS011;47366;51.916;4.574;2022-12-07T08:42:53;0.60;;;0.47;;
61505;SDS011;47366;51.916;4.574;2022-12-07T08:45:19;0.88;;;0.55;;
61505;SDS011;47366;51.916;4.574;2022-12-07T08:47:52;0.50;;;0.40;;
61505;SDS011;47366;51.916;4.574;2022-12-07T08:50:25;1.90;;;1.13;;
61505;SDS011;47366;51.916;4.574;2022-12-07T08:52:52;0.95;;;0.57;;
61505;SDS011;47366;51.916;4.574;2022-12-07T08:55:20;0.80;;;0.55;;
61505;SDS011;47366;51.916;4.574;2022-12-07T08:57:46;0.30;;;0.30;;
61505;SDS011;47366;51.916;4.574;2022-12-07T09:00:12;0.50;;;0.45;;
61505;SDS011;47366;51.916;4.574;2022-12-07T09:02:38;0.10;;;0.10;;
61505;SDS011;47366;51.916;4.574;2022-12-07T09:05:03;0.20;;;0.15;;
61505;SDS011;47366;51.916;4.574;2022-12-07T09:07:29;0.20;;;0.15;;
61505;SDS011;47366;51.916;4.574;2022-12-07T09:09:56;0.22;;;0.13;;
61505;SDS011;47366;51.916;4.574;2022-12-07T09:12:22;2.58;;;0.45;;
61505;SDS011;47366;51.916;4.574;2022-12-07T09:14:47;0.88;;;0.25;;
61505;SDS011;47366;51.916;4.574;2022-12-07T09:17:13;0.55;;;0.50;;
61505;SDS011;47366;51.916;4.574;2022-12-07T09:19:38;0.52;;;0.43;;
61505;SDS011;47366;51.916;4.574;2022-12-07T09:22:04;0.82;;;0.32;;
61505;SDS011;47366;51.916;4.574;2022-12-07T09:24:30;1.25;;;0.30;;
61505;SDS011;47366;51.916;4.574;2022-12-07T09:26:56;0.22;;;0.20;;
61505;SDS011;47366;51.916;4.574;2022-12-07T09:29:22;0.57;;;0.30;;
61505;SDS011;47366;51.916;4.574;2022-12-07T09:31:48;0.98;;;0.85;;
61505;SDS011;47366;51.916;4.574;2022-12-07T09:34:13;0.10;;;0.00;;
61505;SDS011;47366;51.916;4.574;2022-12-07T09:36:38;1.23;;;0.47;;
61505;SDS011;47366;51.916;4.574;2022-12-07T09:39:04;1.88;;;0.32;;
61505;SDS011;47366;51.916;4.574;2022-12-07T09:41:29;0.00;;;0.00;;
61505;SDS011;47366;51.916;4.574;2022-12-07T09:43:58;0.22;;;0.17;;
61505;SDS011;47366;51.916;4.574;2022-12-07T09:46:29;0.30;;;0.22;;
61505;SDS011;47366;51.916;4.574;2022-12-07T09:51:26;0.43;;;0.30;;
61505;SDS011;47366;51.916;4.574;2022-12-07T09:53:53;1.48;;;0.17;;
61505;SDS011;47366;51.916;4.574;2022-12-07T09:56:20;0.38;;;0.20;;
61505;SDS011;47366;51.916;4.574;2022-12-07T09:58:46;0.55;;;0.43;;
61505;SDS011;47366;51.916;4.574;2022-12-07T10:01:17;3.40;;;0.68;;
61505;SDS011;47366;51.916;4.574;2022-12-07T10:06:20;0.25;;;0.25;;
61505;SDS011;47366;51.916;4.574;2022-12-07T10:08:46;0.17;;;0.15;;
61505;SDS011;47366;51.916;4.574;2022-12-07T10:11:12;0.55;;;0.32;;
61505;SDS011;47366;51.916;4.574;2022-12-07T10:13:44;0.05;;;0.05;;
61505;SDS011;47366;51.916;4.574;2022-12-07T10:18:54;0.28;;;0.17;;
61505;SDS011;47366;51.916;4.574;2022-12-07T10:21:24;0.25;;;0.22;;
61505;SDS011;47366;51.916;4.574;2022-12-07T10:31:42;0.22;;;0.22;;
61505;SDS011;47366;51.916;4.574;2022-12-07T10:34:43;0.55;;;0.52;;
61505;SDS011;47366;51.916;4.574;2022-12-07T10:39:40;0.40;;;0.30;;
61505;SDS011;47366;51.916;4.574;2022-12-07T10:42:08;0.47;;;0.43;;
61505;SDS011;47366;51.916;4.574;2022-12-07T10:44:43;2.28;;;0.40;;
61505;SDS011;47366;51.916;4.574;2022-12-07T11:03:49;1.03;;;0.77;;
61505;SDS011;47366;51.916;4.574;2022-12-07T11:06:16;0.68;;;0.60;;
61505;SDS011;47366;51.916;4.574;2022-12-07T11:08:56;0.65;;;0.65;;
61505;SDS011;47366;51.916;4.574;2022-12-07T11:11:47;0.47;;;0.37;;
61505;SDS011;47366;51.916;4.574;2022-12-07T11:16:45;1.75;;;0.47;;
61505;SDS011;47366;51.916;4.574;2022-12-07T11:22:13;0.88;;;0.35;;
61505;SDS011;47366;51.916;4.574;2022-12-07T11:30:10;0.25;;;0.10;;
61505;SDS011;47366;51.916;4.574;2022-12-07T11:38:07;0.95;;;0.22;;
61505;SDS011;47366;51.916;4.574;2022-12-07T11:40:46;1.52;;;0.63;;
61505;SDS011;47366;51.916;4.574;2022-12-07T11:46:12;0.88;;;0.30;;
61505;SDS011;47366;51.916;4.574;2022-12-07T11:48:46;4.57;;;0.57;;
61505;SDS011;47366;51.916;4.574;2022-12-07T11:51:17;1.50;;;0.15;;
61505;SDS011;47366;51.916;4.574;2022-12-07T11:54:19;1.35;;;0.10;;
61505;SDS011;47366;51.916;4.574;2022-12-07T11:56:47;0.00;;;0.00;;
61505;SDS011;47366;51.916;4.574;2022-12-07T11:59:17;0.47;;;0.25;;
61505;SDS011;47366;51.916;4.574;2022-12-07T12:02:12;0.30;;;0.20;;
61505;SDS011;47366;51.916;4.574;2022-12-07T12:04:49;0.00;;;0.00;;
61505;SDS011;47366;51.916;4.574;2022-12-07T12:07:21;0.00;;;0.00;;
61505;SDS011;47366;51.916;4.574;2022-12-07T12:09:56;0.00;;;0.00;;
61505;SDS011;47366;51.916;4.574;2022-12-07T12:18:04;0.00;;;0.00;;
61505;SDS011;47366;51.916;4.574;2022-12-07T12:20:41;0.15;;;0.03;;
61505;SDS011;47366;51.916;4.574;2022-12-07T12:25:49;0.00;;;0.00;;
61505;SDS011;47366;51.916;4.574;2022-12-07T12:28:23;0.00;;;0.00;;
61505;SDS011;47366;51.916;4.574;2022-12-07T12:31:07;0.20;;;0.03;;
61505;SDS011;47366;51.916;4.574;2022-12-07T12:33:56;0.00;;;0.00;;
61505;SDS011;47366;51.916;4.574;2022-12-07T12:56:47;0.25;;;0.15;;
61505;SDS011;47366;51.916;4.574;2022-12-07T12:59:33;0.00;;;0.00;;
61505;SDS011;47366;51.916;4.574;2022-12-07T13:05:17;0.00;;;0.00;;
61505;SDS011;47366;51.916;4.574;2022-12-07T13:10:23;0.10;;;0.10;;
61505;SDS011;47366;51.916;4.574;2022-12-07T13:15:34;0.38;;;0.25;;
61505;SDS011;47366;51.916;4.574;2022-12-07T13:28:48;0.10;;;0.03;;
61505;SDS011;47366;51.916;4.574;2022-12-07T13:31:19;0.00;;;0.00;;
61505;SDS011;47366;51.916;4.574;2022-12-07T13:33:54;0.35;;;0.10;;
61505;SDS011;47366;51.916;4.574;2022-12-07T13:36:24;0.00;;;0.00;;
61505;SDS011;47366;51.916;4.574;2022-12-07T13:38:52;0.05;;;0.05;;
61505;SDS011;47366;51.916;4.574;2022-12-07T13:41:41;0.00;;;0.00;;
61505;SDS011;47366;51.916;4.574;2022-12-07T13:44:13;0.05;;;0.05;;
61505;SDS011;47366;51.916;4.574;2022-12-07T13:46:43;0.00;;;0.00;;
61505;SDS011;47366;51.916;4.574;2022-12-07T13:49:23;1.65;;;0.10;;
61505;SDS011;47366;51.916;4.574;2022-12-07T13:51:51;0.00;;;0.00;;
61505;SDS011;47366;51.916;4.574;2022-12-07T13:54:18;0.00;;;0.00;;
61505;SDS011;47366;51.916;4.574;2022-12-07T13:56:49;0.00;;;0.00;;
61505;SDS011;47366;51.916;4.574;2022-12-07T13:59:20;0.10;;;0.10;;
61505;SDS011;47366;51.916;4.574;2022-12-07T14:01:48;0.28;;;0.08;;
61505;SDS011;47366;51.916;4.574;2022-12-07T14:10:29;2.60;;;0.25;;
61505;SDS011;47366;51.916;4.574;2022-12-07T14:12:57;0.00;;;0.00;;
61505;SDS011;47366;51.916;4.574;2022-12-07T14:15:25;0.00;;;0.00;;
61505;SDS011;47366;51.916;4.574;2022-12-07T14:17:54;0.15;;;0.03;;
61505;SDS011;47366;51.916;4.574;2022-12-07T14:20:33;0.20;;;0.10;;
61505;SDS011;47366;51.916;4.574;2022-12-07T14:23:02;0.00;;;0.00;;
61505;SDS011;47366;51.916;4.574;2022-12-07T14:25:44;0.30;;;0.00;;
61505;SDS011;47366;51.916;4.574;2022-12-07T14:30:59;0.38;;;0.13;;
61505;SDS011;47366;51.916;4.574;2022-12-07T14:33:26;0.35;;;0.20;;
61505;SDS011;47366;51.916;4.574;2022-12-07T14:35:51;0.10;;;0.10;;
61505;SDS011;47366;51.916;4.574;2022-12-07T14:38:22;0.38;;;0.20;;
61505;SDS011;47366;51.916;4.574;2022-12-07T14:40:49;0.40;;;0.13;;
61505;SDS011;47366;51.916;4.574;2022-12-07T14:43:15;0.50;;;0.25;;
61505;SDS011;47366;51.916;4.574;2022-12-07T14:45:42;0.25;;;0.17;;
61505;SDS011;47366;51.916;4.574;2022-12-07T14:48:11;1.45;;;0.63;;
61505;SDS011;47366;51.916;4.574;2022-12-07T14:50:39;1.00;;;0.38;;
61505;SDS011;47366;51.916;4.574;2022-12-07T14:53:15;0.43;;;0.05;;
61505;SDS011;47366;51.916;4.574;2022-12-07T14:55:42;0.13;;;0.13;;
61505;SDS011;47366;51.916;4.574;2022-12-07T14:58:11;4.60;;;0.40;;
61505;SDS011;47366;51.916;4.574;2022-12-07T15:00:39;0.20;;;0.10;;
61505;SDS011;47366;51.916;4.574;2022-12-07T15:03:04;1.42;;;0.57;;
61505;SDS011;47366;51.916;4.574;2022-12-07T15:05:29;3.22;;;0.35;;
61505;SDS011;47366;51.916;4.574;2022-12-07T15:07:55;0.63;;;0.05;;
61505;SDS011;47366;51.916;4.574;2022-12-07T15:10:22;1.17;;;0.60;;
61505;SDS011;47366;51.916;4.574;2022-12-07T15:12:49;0.38;;;0.25;;
61505;SDS011;47366;51.916;4.574;2022-12-07T15:15:14;0.63;;;0.35;;
61505;SDS011;47366;51.916;4.574;2022-12-07T15:17:40;0.00;;;0.00;;
61505;SDS011;47366;51.916;4.574;2022-12-07T15:20:08;0.47;;;0.17;;
61505;SDS011;47366;51.916;4.574;2022-12-07T15:22:37;0.20;;;0.10;;
61505;SDS011;47366;51.916;4.574;2022-12-07T15:25:03;0.00;;;0.00;;
61505;SDS011;47366;51.916;4.574;2022-12-07T15:27:30;0.17;;;0.10;;
61505;SDS011;47366;51.916;4.574;2022-12-07T15:29:55;0.10;;;0.10;;
61505;SDS011;47366;51.916;4.574;2022-12-07T15:32:20;0.45;;;0.25;;
61505;SDS011;47366;51.916;4.574;2022-12-07T15:34:47;0.17;;;0.00;;
61505;SDS011;47366;51.916;4.574;2022-12-07T15:37:13;0.55;;;0.40;;
61505;SDS011;47366;51.916;4.574;2022-12-07T15:39:38;0.90;;;0.30;;
61505;SDS011;47366;51.916;4.574;2022-12-07T15:42:03;0.20;;;0.20;;
61505;SDS011;47366;51.916;4.574;2022-12-07T15:44:29;2.00;;;0.32;;
61505;SDS011;47366;51.916;4.574;2022-12-07T15:47:12;0.73;;;0.38;;
61505;SDS011;47366;51.916;4.574;2022-12-07T15:49:38;0.20;;;0.20;;
61505;SDS011;47366;51.916;4.574;2022-12-07T15:52:03;0.50;;;0.25;;
61505;SDS011;47366;51.916;4.574;2022-12-07T15:54:29;0.40;;;0.40;;
61505;SDS011;47366;51.916;4.574;2022-12-07T15:56:55;0.80;;;0.35;;
61505;SDS011;47366;51.916;4.574;2022-12-07T15:59:21;2.38;;;0.80;;
61505;SDS011;47366;51.916;4.574;2022-12-07T16:01:47;1.25;;;0.70;;
61505;SDS011;47366;51.916;4.574;2022-12-07T16:04:12;0.93;;;0.70;;
61505;SDS011;47366;51.916;4.574;2022-12-07T16:06:38;1.00;;;0.90;;
61505;SDS011;47366;51.916;4.574;2022-12-07T16:09:04;0.93;;;0.77;;
61505;SDS011;47366;51.916;4.574;2022-12-07T16:11:29;1.30;;;0.93;;
61505;SDS011;47366;51.916;4.574;2022-12-07T16:13:55;1.48;;;0.88;;
61505;SDS011;47366;51.916;4.574;2022-12-07T16:16:21;1.30;;;1.00;;
61505;SDS011;47366;51.916;4.574;2022-12-07T16:18:50;1.25;;;0.73;;
61505;SDS011;47366;51.916;4.574;2022-12-07T16:21:15;0.65;;;0.57;;
61505;SDS011;47366;51.916;4.574;2022-12-07T16:23:42;0.15;;;0.13;;
61505;SDS011;47366;51.916;4.574;2022-12-07T16:28:36;2.28;;;0.17;;
61505;SDS011;47366;51.916;4.574;2022-12-07T16:31:05;0.20;;;0.20;;
61505;SDS011;47366;51.916;4.574;2022-12-07T16:33:35;3.65;;;0.50;;
61505;SDS011;47366;51.916;4.574;2022-12-07T16:36:02;0.65;;;0.38;;
61505;SDS011;47366;51.916;4.574;2022-12-07T16:38:29;1.92;;;0.52;;
61505;SDS011;47366;51.916;4.574;2022-12-07T16:40:55;0.85;;;0.35;;
61505;SDS011;47366;51.916;4.574;2022-12-07T16:43:20;0.22;;;0.10;;
61505;SDS011;47366;51.916;4.574;2022-12-07T16:45:46;0.20;;;0.20;;
61505;SDS011;47366;51.916;4.574;2022-12-07T16:48:12;0.15;;;0.08;;
61505;SDS011;47366;51.916;4.574;2022-12-07T16:50:39;0.10;;;0.10;;
61505;SDS011;47366;51.916;4.574;2022-12-07T16:53:06;0.10;;;0.10;;
61505;SDS011;47366;51.916;4.574;2022-12-07T16:55:35;1.65;;;0.35;;
61505;SDS011;47366;51.916;4.574;2022-12-07T16:58:04;0.90;;;0.30;;
61505;SDS011;47366;51.916;4.574;2022-12-07T17:00:30;0.57;;;0.28;;
61505;SDS011;47366;51.916;4.574;2022-12-07T17:02:55;9.13;;;0.50;;
61505;SDS011;47366;51.916;4.574;2022-12-07T17:05:21;0.43;;;0.10;;
61505;SDS011;47366;51.916;4.574;2022-12-07T17:07:46;0.00;;;0.00;;
61505;SDS011;47366;51.916;4.574;2022-12-07T17:10:11;1.05;;;0.40;;
61505;SDS011;47366;51.916;4.574;2022-12-07T17:12:37;0.10;;;0.10;;
61505;SDS011;47366;51.916;4.574;2022-12-07T17:15:02;0.10;;;0.10;;
61505;SDS011;47366;51.916;4.574;2022-12-07T17:17:56;0.80;;;0.65;;
61505;SDS011;47366;51.916;4.574;2022-12-07T17:20:23;0.88;;;0.15;;
61505;SDS011;47366;51.916;4.574;2022-12-07T17:22:50;0.20;;;0.20;;
61505;SDS011;47366;51.916;4.574;2022-12-07T17:25:16;0.47;;;0.30;;
61505;SDS011;47366;51.916;4.574;2022-12-07T17:27:42;0.52;;;0.32;;